Evans, WA

2:00 PM PDT on September 01, 2015 (GMT -0700)
Colville Mountain | | Change Station
CLOSE
Current Station
Personal Weather Station
Location: Colville, WA
Elevation: 1800 ft
Nearby Weather Stations

Elev 1800 ft 48.55 °N, 117.90 °W | Updated 14 seconds ago

Partly Cloudy
Partly Cloudy
69.9 °F
Feels Like 69.9 °F
N
5.0
Wind Variable Wind from ESE
Gusts 6.0 mph

Today
High -- | Low -- °F
--% Chance of Precip.
Yesterday
High -- | Low -- °F
Precip. -- in
6:08 AM 7:34 PM
Waning Gibbous, 86% visible
Pressure 29.82 in
Visibility 10.0 miles
Clouds Mostly Cloudy 5500 ft
Mostly Cloudy 7500 ft
Dew Point 48 °F
Humidity 46%
Rainfall 0.00 in
Snow Depth Not available.
UV 4 out of 12
Pollen 7.50 out of 12
Air Quality Not available.
Flu Activity Not available.
METAR KDEW 012053Z AUTO 15004KT 10SM BKN055 BKN075 21/07 A2984 RMK AO2 SLP098 T02110067 58018
Pressure 29.82 in
Visibility 10.0 miles
Clouds Mostly Cloudy 5500 ft
Mostly Cloudy 7500 ft
Dew Point 48 °F
Humidity 46%
Rainfall 0.00 in
Snow Depth Not available.
UV 4 out of 12
Pollen 7.50 out of 12
Air Quality Not available.
Flu Activity Not available.
METAR KDEW 012053Z AUTO 15004KT 10SM BKN055 BKN075 21/07 A2984 RMK AO2 SLP098 T02110067 58018

10-Day Weather Forecast

×

Almanac

Astronomy

Sep. 01, 2015 Rise Set
Actual Time
Civil Twilight
Nautical Twilight
Astronomical Twilight
Moon
Length of Visible Light
Length of Day
Tomorrow will be .
, % of the Moon is Illuminated

Today's Extremes

State Highs State Lows

Community

WunderPhotos

Upload Photos

1,851,616 photos uploaded!

WunderBlogs® & News

Nearby

Air Quality

  Air Quality AQ Index Pollutant
Not available.

Snow Depth

Station Depth Elevation

Earthquake Activity

City Distance Mag. Time & Date
Minimum magnitude displayed is 2.5.

Coastal Water Temperatures

Place Temperature

Stations

Nearby Weather Stations

Station Location Temp. Windchill Dew Point Humidity Wind Precip. Elev Updated Type